sensor_id;sensor_type;location;lat;lon;timestamp;P1;durP1;ratioP1;P2;durP2;ratioP2
43560;SDS011;32305;46.410;17.394;2022-12-16T00:01:33;17.35;;;10.88;;
43560;SDS011;32305;46.410;17.394;2022-12-16T00:04:00;16.50;;;11.07;;
43560;SDS011;32305;46.410;17.394;2022-12-16T00:06:29;17.40;;;11.55;;
43560;SDS011;32305;46.410;17.394;2022-12-16T00:08:59;16.23;;;11.15;;
43560;SDS011;32305;46.410;17.394;2022-12-16T00:11:27;16.00;;;10.23;;
43560;SDS011;32305;46.410;17.394;2022-12-16T00:13:57;15.43;;;10.18;;
43560;SDS011;32305;46.410;17.394;2022-12-16T00:16:24;15.10;;;10.52;;
43560;SDS011;32305;46.410;17.394;2022-12-16T00:18:51;15.15;;;10.43;;
43560;SDS011;32305;46.410;17.394;2022-12-16T00:21:18;16.40;;;10.85;;
43560;SDS011;32305;46.410;17.394;2022-12-16T00:23:46;14.68;;;10.00;;
43560;SDS011;32305;46.410;17.394;2022-12-16T00:26:13;15.35;;;10.85;;
43560;SDS011;32305;46.410;17.394;2022-12-16T00:28:40;15.20;;;10.43;;
43560;SDS011;32305;46.410;17.394;2022-12-16T00:31:09;15.23;;;10.82;;
43560;SDS011;32305;46.410;17.394;2022-12-16T00:33:36;15.02;;;10.32;;
43560;SDS011;32305;46.410;17.394;2022-12-16T00:36:03;14.40;;;10.38;;
43560;SDS011;32305;46.410;17.394;2022-12-16T00:38:31;14.82;;;10.13;;
43560;SDS011;32305;46.410;17.394;2022-12-16T00:40:58;12.93;;;9.15;;
43560;SDS011;32305;46.410;17.394;2022-12-16T00:43:25;14.07;;;9.70;;
43560;SDS011;32305;46.410;17.394;2022-12-16T00:45:52;14.07;;;9.63;;
43560;SDS011;32305;46.410;17.394;2022-12-16T00:48:19;14.23;;;9.82;;
43560;SDS011;32305;46.410;17.394;2022-12-16T00:50:49;15.77;;;9.60;;
43560;SDS011;32305;46.410;17.394;2022-12-16T00:53:21;15.90;;;10.48;;
43560;SDS011;32305;46.410;17.394;2022-12-16T00:55:48;12.82;;;9.02;;
43560;SDS011;32305;46.410;17.394;2022-12-16T00:58:17;13.85;;;9.40;;
43560;SDS011;32305;46.410;17.394;2022-12-16T01:00:44;13.23;;;9.00;;
43560;SDS011;32305;46.410;17.394;2022-12-16T01:03:11;16.13;;;10.05;;
43560;SDS011;32305;46.410;17.394;2022-12-16T01:05:46;13.65;;;9.20;;
43560;SDS011;32305;46.410;17.394;2022-12-16T01:08:13;11.63;;;8.23;;
43560;SDS011;32305;46.410;17.394;2022-12-16T01:10:40;12.60;;;9.02;;
43560;SDS011;32305;46.410;17.394;2022-12-16T01:13:07;10.55;;;7.93;;
43560;SDS011;32305;46.410;17.394;2022-12-16T01:15:35;12.13;;;8.40;;
43560;SDS011;32305;46.410;17.394;2022-12-16T01:18:03;12.23;;;8.63;;
43560;SDS011;32305;46.410;17.394;2022-12-16T01:20:31;11.45;;;8.65;;
43560;SDS011;32305;46.410;17.394;2022-12-16T01:22:58;13.95;;;8.30;;
43560;SDS011;32305;46.410;17.394;2022-12-16T01:25:26;12.02;;;8.05;;
43560;SDS011;32305;46.410;17.394;2022-12-16T01:27:53;11.88;;;8.35;;
43560;SDS011;32305;46.410;17.394;2022-12-16T01:30:20;13.50;;;8.13;;
43560;SDS011;32305;46.410;17.394;2022-12-16T01:32:48;11.57;;;8.63;;
43560;SDS011;32305;46.410;17.394;2022-12-16T01:35:15;10.07;;;7.75;;
43560;SDS011;32305;46.410;17.394;2022-12-16T01:38:03;11.65;;;8.52;;
43560;SDS011;32305;46.410;17.394;2022-12-16T01:40:30;10.52;;;7.28;;
43560;SDS011;32305;46.410;17.394;2022-12-16T01:42:57;10.95;;;7.90;;
43560;SDS011;32305;46.410;17.394;2022-12-16T01:45:29;12.48;;;7.97;;
43560;SDS011;32305;46.410;17.394;2022-12-16T01:48:04;10.75;;;7.88;;
43560;SDS011;32305;46.410;17.394;2022-12-16T01:50:44;11.05;;;7.80;;
43560;SDS011;32305;46.410;17.394;2022-12-16T01:53:12;10.77;;;7.85;;
43560;SDS011;32305;46.410;17.394;2022-12-16T01:55:44;9.98;;;7.85;;
43560;SDS011;32305;46.410;17.394;2022-12-16T01:58:18;9.90;;;7.45;;
43560;SDS011;32305;46.410;17.394;2022-12-16T02:00:50;10.07;;;7.57;;
43560;SDS011;32305;46.410;17.394;2022-12-16T02:03:19;11.05;;;7.68;;
43560;SDS011;32305;46.410;17.394;2022-12-16T02:05:48;9.52;;;6.65;;
43560;SDS011;32305;46.410;17.394;2022-12-16T02:08:18;9.93;;;7.57;;
43560;SDS011;32305;46.410;17.394;2022-12-16T02:10:49;10.02;;;7.88;;
43560;SDS011;32305;46.410;17.394;2022-12-16T02:13:41;9.35;;;6.85;;
43560;SDS011;32305;46.410;17.394;2022-12-16T02:16:22;9.50;;;6.45;;
43560;SDS011;32305;46.410;17.394;2022-12-16T02:19:00;11.65;;;7.45;;
43560;SDS011;32305;46.410;17.394;2022-12-16T02:21:51;9.98;;;6.90;;
43560;SDS011;32305;46.410;17.394;2022-12-16T02:24:51;10.82;;;6.90;;
43560;SDS011;32305;46.410;17.394;2022-12-16T02:27:52;10.60;;;6.85;;
43560;SDS011;32305;46.410;17.394;2022-12-16T02:30:44;8.95;;;6.70;;
43560;SDS011;32305;46.410;17.394;2022-12-16T02:33:27;8.45;;;6.38;;
43560;SDS011;32305;46.410;17.394;2022-12-16T02:36:23;8.60;;;6.78;;
43560;SDS011;32305;46.410;17.394;2022-12-16T02:39:13;10.10;;;7.07;;
43560;SDS011;32305;46.410;17.394;2022-12-16T02:41:56;8.10;;;6.32;;
43560;SDS011;32305;46.410;17.394;2022-12-16T02:45:03;7.82;;;6.50;;
43560;SDS011;32305;46.410;17.394;2022-12-16T02:47:44;9.40;;;6.45;;
43560;SDS011;32305;46.410;17.394;2022-12-16T02:50:19;8.00;;;6.15;;
43560;SDS011;32305;46.410;17.394;2022-12-16T02:52:52;8.83;;;6.00;;
43560;SDS011;32305;46.410;17.394;2022-12-16T02:55:21;9.17;;;6.40;;
43560;SDS011;32305;46.410;17.394;2022-12-16T02:58:08;8.77;;;6.22;;
43560;SDS011;32305;46.410;17.394;2022-12-16T03:00:48;8.15;;;6.40;;
43560;SDS011;32305;46.410;17.394;2022-12-16T03:03:32;9.13;;;6.47;;
43560;SDS011;32305;46.410;17.394;2022-12-16T03:06:08;7.78;;;6.05;;
43560;SDS011;32305;46.410;17.394;2022-12-16T03:11:08;6.30;;;5.45;;
43560;SDS011;32305;46.410;17.394;2022-12-16T03:13:40;7.25;;;5.80;;
43560;SDS011;32305;46.410;17.394;2022-12-16T03:16:12;7.97;;;5.50;;
43560;SDS011;32305;46.410;17.394;2022-12-16T03:18:43;6.57;;;5.57;;
43560;SDS011;32305;46.410;17.394;2022-12-16T03:21:13;8.13;;;6.10;;
43560;SDS011;32305;46.410;17.394;2022-12-16T03:23:52;7.13;;;5.45;;
43560;SDS011;32305;46.410;17.394;2022-12-16T03:26:24;6.80;;;5.28;;
43560;SDS011;32305;46.410;17.394;2022-12-16T03:29:16;6.55;;;5.35;;
43560;SDS011;32305;46.410;17.394;2022-12-16T03:32:03;7.55;;;5.68;;
43560;SDS011;32305;46.410;17.394;2022-12-16T03:34:41;6.82;;;5.13;;
43560;SDS011;32305;46.410;17.394;2022-12-16T03:37:12;7.57;;;5.60;;
43560;SDS011;32305;46.410;17.394;2022-12-16T03:39:41;7.18;;;5.07;;
43560;SDS011;32305;46.410;17.394;2022-12-16T03:42:12;7.88;;;5.90;;
43560;SDS011;32305;46.410;17.394;2022-12-16T03:44:44;6.53;;;4.82;;
43560;SDS011;32305;46.410;17.394;2022-12-16T03:47:12;5.25;;;4.43;;
43560;SDS011;32305;46.410;17.394;2022-12-16T03:49:48;7.38;;;5.63;;
43560;SDS011;32305;46.410;17.394;2022-12-16T03:52:15;6.00;;;4.65;;
43560;SDS011;32305;46.410;17.394;2022-12-16T03:54:42;7.47;;;4.90;;
43560;SDS011;32305;46.410;17.394;2022-12-16T03:57:09;7.55;;;5.28;;
43560;SDS011;32305;46.410;17.394;2022-12-16T03:59:40;7.10;;;5.38;;
43560;SDS011;32305;46.410;17.394;2022-12-16T04:02:08;6.18;;;5.15;;
43560;SDS011;32305;46.410;17.394;2022-12-16T04:04:36;7.35;;;5.10;;
43560;SDS011;32305;46.410;17.394;2022-12-16T04:07:03;7.22;;;5.38;;
43560;SDS011;32305;46.410;17.394;2022-12-16T04:09:46;6.28;;;5.10;;
43560;SDS011;32305;46.410;17.394;2022-12-16T04:12:14;6.38;;;4.88;;
43560;SDS011;32305;46.410;17.394;2022-12-16T04:15:02;5.85;;;5.22;;
43560;SDS011;32305;46.410;17.394;2022-12-16T04:17:50;5.15;;;4.50;;
43560;SDS011;32305;46.410;17.394;2022-12-16T04:20:44;5.55;;;4.50;;
43560;SDS011;32305;46.410;17.394;2022-12-16T04:23:34;5.43;;;4.53;;
43560;SDS011;32305;46.410;17.394;2022-12-16T04:26:27;6.25;;;4.72;;
43560;SDS011;32305;46.410;17.394;2022-12-16T04:28:54;5.28;;;4.35;;
43560;SDS011;32305;46.410;17.394;2022-12-16T04:31:21;5.60;;;4.80;;
43560;SDS011;32305;46.410;17.394;2022-12-16T04:33:48;6.70;;;4.28;;
43560;SDS011;32305;46.410;17.394;2022-12-16T04:36:35;6.35;;;4.43;;
43560;SDS011;32305;46.410;17.394;2022-12-16T04:39:22;5.65;;;4.47;;
43560;SDS011;32305;46.410;17.394;2022-12-16T04:42:09;5.10;;;4.10;;
43560;SDS011;32305;46.410;17.394;2022-12-16T04:44:56;5.30;;;4.47;;
43560;SDS011;32305;46.410;17.394;2022-12-16T04:47:43;5.63;;;4.40;;
43560;SDS011;32305;46.410;17.394;2022-12-16T04:50:30;5.07;;;4.20;;
43560;SDS011;32305;46.410;17.394;2022-12-16T04:53:17;5.53;;;4.45;;
43560;SDS011;32305;46.410;17.394;2022-12-16T04:56:04;5.13;;;4.07;;
43560;SDS011;32305;46.410;17.394;2022-12-16T04:58:51;5.65;;;4.40;;
43560;SDS011;32305;46.410;17.394;2022-12-16T05:01:38;5.30;;;3.92;;
43560;SDS011;32305;46.410;17.394;2022-12-16T05:04:27;4.72;;;3.92;;
43560;SDS011;32305;46.410;17.394;2022-12-16T05:07:14;5.78;;;4.30;;
43560;SDS011;32305;46.410;17.394;2022-12-16T05:10:04;6.40;;;4.63;;
43560;SDS011;32305;46.410;17.394;2022-12-16T05:12:53;5.25;;;4.10;;
43560;SDS011;32305;46.410;17.394;2022-12-16T05:15:40;4.80;;;4.00;;
43560;SDS011;32305;46.410;17.394;2022-12-16T05:18:27;5.30;;;3.83;;
43560;SDS011;32305;46.410;17.394;2022-12-16T05:21:14;4.82;;;3.83;;
43560;SDS011;32305;46.410;17.394;2022-12-16T05:24:01;5.50;;;4.32;;
43560;SDS011;32305;46.410;17.394;2022-12-16T05:26:48;4.75;;;3.90;;
43560;SDS011;32305;46.410;17.394;2022-12-16T05:29:35;4.68;;;3.75;;
43560;SDS011;32305;46.410;17.394;2022-12-16T05:32:21;5.13;;;3.83;;
43560;SDS011;32305;46.410;17.394;2022-12-16T05:35:08;4.45;;;4.00;;
43560;SDS011;32305;46.410;17.394;2022-12-16T05:37:55;6.88;;;5.15;;
43560;SDS011;32305;46.410;17.394;2022-12-16T05:40:43;5.68;;;4.80;;
43560;SDS011;32305;46.410;17.394;2022-12-16T05:43:30;5.05;;;4.55;;
43560;SDS011;32305;46.410;17.394;2022-12-16T05:46:16;5.43;;;4.85;;
43560;SDS011;32305;46.410;17.394;2022-12-16T05:49:03;6.22;;;4.90;;
43560;SDS011;32305;46.410;17.394;2022-12-16T05:51:50;6.13;;;4.82;;
43560;SDS011;32305;46.410;17.394;2022-12-16T05:54:37;6.85;;;5.57;;
43560;SDS011;32305;46.410;17.394;2022-12-16T05:57:24;6.60;;;5.05;;
43560;SDS011;32305;46.410;17.394;2022-12-16T06:00:11;6.55;;;5.15;;
43560;SDS011;32305;46.410;17.394;2022-12-16T06:02:59;5.97;;;4.75;;
43560;SDS011;32305;46.410;17.394;2022-12-16T06:05:46;7.55;;;5.45;;
43560;SDS011;32305;46.410;17.394;2022-12-16T06:08:33;7.40;;;5.72;;
43560;SDS011;32305;46.410;17.394;2022-12-16T06:11:20;6.13;;;5.05;;
43560;SDS011;32305;46.410;17.394;2022-12-16T06:14:08;8.13;;;5.75;;
43560;SDS011;32305;46.410;17.394;2022-12-16T06:16:55;8.48;;;6.15;;
43560;SDS011;32305;46.410;17.394;2022-12-16T06:19:42;8.52;;;5.93;;
43560;SDS011;32305;46.410;17.394;2022-12-16T06:22:29;7.10;;;5.57;;
43560;SDS011;32305;46.410;17.394;2022-12-16T06:25:17;10.10;;;5.43;;
43560;SDS011;32305;46.410;17.394;2022-12-16T06:28:04;9.07;;;6.40;;
43560;SDS011;32305;46.410;17.394;2022-12-16T06:30:51;8.85;;;6.93;;
43560;SDS011;32305;46.410;17.394;2022-12-16T06:33:37;8.05;;;5.88;;
43560;SDS011;32305;46.410;17.394;2022-12-16T06:36:25;7.80;;;5.80;;
43560;SDS011;32305;46.410;17.394;2022-12-16T06:39:12;8.95;;;6.32;;
43560;SDS011;32305;46.410;17.394;2022-12-16T06:41:59;9.57;;;7.65;;
43560;SDS011;32305;46.410;17.394;2022-12-16T06:44:46;11.52;;;7.20;;
43560;SDS011;32305;46.410;17.394;2022-12-16T06:47:34;9.23;;;6.72;;
43560;SDS011;32305;46.410;17.394;2022-12-16T06:50:21;10.43;;;6.97;;
43560;SDS011;32305;46.410;17.394;2022-12-16T06:53:10;11.75;;;7.07;;
43560;SDS011;32305;46.410;17.394;2022-12-16T06:55:58;9.48;;;6.88;;
43560;SDS011;32305;46.410;17.394;2022-12-16T06:58:45;9.60;;;7.22;;
43560;SDS011;32305;46.410;17.394;2022-12-16T07:01:32;13.60;;;8.00;;
43560;SDS011;32305;46.410;17.394;2022-12-16T07:04:19;10.65;;;7.95;;
43560;SDS011;32305;46.410;17.394;2022-12-16T07:07:06;11.82;;;8.23;;
43560;SDS011;32305;46.410;17.394;2022-12-16T07:09:53;11.95;;;7.95;;
43560;SDS011;32305;46.410;17.394;2022-12-16T07:12:40;14.50;;;8.65;;
43560;SDS011;32305;46.410;17.394;2022-12-16T07:15:27;13.80;;;8.07;;
43560;SDS011;32305;46.410;17.394;2022-12-16T07:18:14;10.07;;;7.95;;
43560;SDS011;32305;46.410;17.394;2022-12-16T07:21:02;12.45;;;8.05;;
43560;SDS011;32305;46.410;17.394;2022-12-16T07:23:49;15.20;;;8.60;;
43560;SDS011;32305;46.410;17.394;2022-12-16T07:26:36;10.02;;;7.47;;
43560;SDS011;32305;46.410;17.394;2022-12-16T07:29:23;11.45;;;8.40;;
43560;SDS011;32305;46.410;17.394;2022-12-16T07:32:11;12.10;;;8.82;;
43560;SDS011;32305;46.410;17.394;2022-12-16T07:34:58;14.20;;;9.80;;
43560;SDS011;32305;46.410;17.394;2022-12-16T07:37:45;13.20;;;8.88;;
43560;SDS011;32305;46.410;17.394;2022-12-16T07:40:32;13.00;;;8.32;;
43560;SDS011;32305;46.410;17.394;2022-12-16T07:43:21;14.48;;;8.95;;
43560;SDS011;32305;46.410;17.394;2022-12-16T07:46:08;11.95;;;8.20;;
43560;SDS011;32305;46.410;17.394;2022-12-16T07:48:55;21.25;;;9.43;;
43560;SDS011;32305;46.410;17.394;2022-12-16T07:51:43;12.57;;;8.65;;
43560;SDS011;32305;46.410;17.394;2022-12-16T07:54:30;13.35;;;9.25;;
43560;SDS011;32305;46.410;17.394;2022-12-16T07:57:17;14.88;;;8.80;;
43560;SDS011;32305;46.410;17.394;2022-12-16T08:00:05;15.77;;;9.70;;
43560;SDS011;32305;46.410;17.394;2022-12-16T08:02:53;13.57;;;9.05;;
43560;SDS011;32305;46.410;17.394;2022-12-16T08:05:40;12.88;;;9.70;;
43560;SDS011;32305;46.410;17.394;2022-12-16T08:08:29;15.18;;;9.40;;
43560;SDS011;32305;46.410;17.394;2022-12-16T08:11:16;16.65;;;10.63;;
43560;SDS011;32305;46.410;17.394;2022-12-16T08:14:03;16.90;;;9.82;;
43560;SDS011;32305;46.410;17.394;2022-12-16T08:16:50;15.77;;;10.43;;
43560;SDS011;32305;46.410;17.394;2022-12-16T08:19:37;15.80;;;10.27;;
43560;SDS011;32305;46.410;17.394;2022-12-16T08:22:24;17.40;;;11.55;;
43560;SDS011;32305;46.410;17.394;2022-12-16T08:25:11;15.38;;;10.45;;
43560;SDS011;32305;46.410;17.394;2022-12-16T08:27:59;22.17;;;11.15;;
43560;SDS011;32305;46.410;17.394;2022-12-16T08:30:49;14.63;;;10.05;;
43560;SDS011;32305;46.410;17.394;2022-12-16T08:33:37;17.27;;;11.48;;
43560;SDS011;32305;46.410;17.394;2022-12-16T08:36:24;17.77;;;10.75;;
43560;SDS011;32305;46.410;17.394;2022-12-16T08:39:11;14.07;;;10.27;;
43560;SDS011;32305;46.410;17.394;2022-12-16T08:41:58;15.98;;;10.32;;
43560;SDS011;32305;46.410;17.394;2022-12-16T08:44:45;17.10;;;10.70;;
43560;SDS011;32305;46.410;17.394;2022-12-16T08:47:32;16.73;;;11.20;;
43560;SDS011;32305;46.410;17.394;2022-12-16T08:50:21;17.15;;;11.15;;
43560;SDS011;32305;46.410;17.394;2022-12-16T08:53:08;20.90;;;12.02;;
43560;SDS011;32305;46.410;17.394;2022-12-16T08:55:56;18.60;;;11.30;;
43560;SDS011;32305;46.410;17.394;2022-12-16T08:58:43;18.42;;;11.45;;
43560;SDS011;32305;46.410;17.394;2022-12-16T09:01:30;16.73;;;11.15;;
43560;SDS011;32305;46.410;17.394;2022-12-16T09:04:20;17.08;;;11.02;;
43560;SDS011;32305;46.410;17.394;2022-12-16T09:07:07;17.10;;;10.88;;
43560;SDS011;32305;46.410;17.394;2022-12-16T09:09:54;18.38;;;11.18;;
43560;SDS011;32305;46.410;17.394;2022-12-16T09:12:41;17.80;;;11.00;;
43560;SDS011;32305;46.410;17.394;2022-12-16T09:15:28;18.48;;;11.52;;
43560;SDS011;32305;46.410;17.394;2022-12-16T09:18:15;20.60;;;11.45;;
43560;SDS011;32305;46.410;17.394;2022-12-16T09:21:03;18.48;;;12.25;;
43560;SDS011;32305;46.410;17.394;2022-12-16T09:23:57;20.77;;;11.77;;
43560;SDS011;32305;46.410;17.394;2022-12-16T09:26:44;20.85;;;12.15;;
43560;SDS011;32305;46.410;17.394;2022-12-16T09:29:31;21.85;;;12.70;;
43560;SDS011;32305;46.410;17.394;2022-12-16T09:32:21;21.23;;;13.48;;
43560;SDS011;32305;46.410;17.394;2022-12-16T09:35:09;18.42;;;12.18;;
43560;SDS011;32305;46.410;17.394;2022-12-16T09:37:56;22.02;;;12.70;;
43560;SDS011;32305;46.410;17.394;2022-12-16T09:40:43;20.33;;;13.02;;
43560;SDS011;32305;46.410;17.394;2022-12-16T09:43:36;22.00;;;13.02;;
43560;SDS011;32305;46.410;17.394;2022-12-16T09:46:51;22.20;;;13.40;;
43560;SDS011;32305;46.410;17.394;2022-12-16T09:50:00;22.38;;;13.48;;
43560;SDS011;32305;46.410;17.394;2022-12-16T09:52:49;19.83;;;12.98;;
43560;SDS011;32305;46.410;17.394;2022-12-16T09:55:47;21.92;;;13.32;;
43560;SDS011;32305;46.410;17.394;2022-12-16T09:58:36;22.17;;;13.85;;
43560;SDS011;32305;46.410;17.394;2022-12-16T10:01:29;20.38;;;13.20;;
43560;SDS011;32305;46.410;17.394;2022-12-16T10:04:23;19.33;;;13.65;;
43560;SDS011;32305;46.410;17.394;2022-12-16T10:07:14;21.15;;;12.48;;
43560;SDS011;32305;46.410;17.394;2022-12-16T10:10:19;21.25;;;13.20;;
43560;SDS011;32305;46.410;17.394;2022-12-16T10:13:39;19.30;;;12.35;;
43560;SDS011;32305;46.410;17.394;2022-12-16T10:16:55;20.00;;;12.75;;
43560;SDS011;32305;46.410;17.394;2022-12-16T10:20:19;28.40;;;13.73;;
43560;SDS011;32305;46.410;17.394;2022-12-16T10:23:47;25.38;;;12.73;;
43560;SDS011;32305;46.410;17.394;2022-12-16T10:26:52;28.17;;;14.00;;
43560;SDS011;32305;46.410;17.394;2022-12-16T10:29:50;25.63;;;13.48;;
43560;SDS011;32305;46.410;17.394;2022-12-16T10:32:39;28.30;;;13.75;;
43560;SDS011;32305;46.410;17.394;2022-12-16T10:35:36;27.27;;;15.00;;
43560;SDS011;32305;46.410;17.394;2022-12-16T10:38:37;23.40;;;13.70;;
43560;SDS011;32305;46.410;17.394;2022-12-16T10:41:35;26.27;;;14.13;;
43560;SDS011;32305;46.410;17.394;2022-12-16T10:44:41;30.35;;;14.50;;
43560;SDS011;32305;46.410;17.394;2022-12-16T10:47:37;26.35;;;14.15;;
43560;SDS011;32305;46.410;17.394;2022-12-16T10:50:25;25.10;;;13.20;;
43560;SDS011;32305;46.410;17.394;2022-12-16T10:53:13;29.52;;;14.45;;
43560;SDS011;32305;46.410;17.394;2022-12-16T10:59:09;21.77;;;13.43;;
43560;SDS011;32305;46.410;17.394;2022-12-16T11:02:02;22.10;;;13.52;;
43560;SDS011;32305;46.410;17.394;2022-12-16T11:05:03;26.38;;;14.43;;
43560;SDS011;32305;46.410;17.394;2022-12-16T11:08:24;23.60;;;13.35;;
43560;SDS011;32305;46.410;17.394;2022-12-16T11:11:19;26.10;;;14.68;;
43560;SDS011;32305;46.410;17.394;2022-12-16T11:14:20;22.17;;;13.57;;
43560;SDS011;32305;46.410;17.394;2022-12-16T11:17:30;25.45;;;14.60;;
43560;SDS011;32305;46.410;17.394;2022-12-16T11:20:22;21.92;;;13.40;;
43560;SDS011;32305;46.410;17.394;2022-12-16T11:23:18;24.15;;;13.75;;
43560;SDS011;32305;46.410;17.394;2022-12-16T11:26:15;23.58;;;12.68;;
43560;SDS011;32305;46.410;17.394;2022-12-16T11:29:17;19.98;;;12.90;;
43560;SDS011;32305;46.410;17.394;2022-12-16T11:32:18;22.67;;;14.02;;
43560;SDS011;32305;46.410;17.394;2022-12-16T11:35:12;21.90;;;12.88;;
43560;SDS011;32305;46.410;17.394;2022-12-16T11:38:03;20.38;;;12.43;;
43560;SDS011;32305;46.410;17.394;2022-12-16T11:40:55;20.23;;;12.10;;
43560;SDS011;32305;46.410;17.394;2022-12-16T11:43:43;23.65;;;13.68;;
43560;SDS011;32305;46.410;17.394;2022-12-16T11:46:36;21.95;;;12.45;;
43560;SDS011;32305;46.410;17.394;2022-12-16T11:49:29;25.58;;;13.05;;
43560;SDS011;32305;46.410;17.394;2022-12-16T11:52:19;19.05;;;12.52;;
43560;SDS011;32305;46.410;17.394;2022-12-16T11:55:26;21.73;;;11.82;;
43560;SDS011;32305;46.410;17.394;2022-12-16T11:58:39;19.38;;;12.65;;
43560;SDS011;32305;46.410;17.394;2022-12-16T12:01:45;19.58;;;12.68;;
43560;SDS011;32305;46.410;17.394;2022-12-16T12:04:37;18.17;;;11.70;;
43560;SDS011;32305;46.410;17.394;2022-12-16T12:07:29;18.50;;;11.93;;
43560;SDS011;32305;46.410;17.394;2022-12-16T12:10:37;17.58;;;11.50;;
43560;SDS011;32305;46.410;17.394;2022-12-16T12:17:05;18.00;;;11.50;;
43560;SDS011;32305;46.410;17.394;2022-12-16T12:20:19;18.73;;;12.13;;
43560;SDS011;32305;46.410;17.394;2022-12-16T12:23:34;19.52;;;11.77;;
43560;SDS011;32305;46.410;17.394;2022-12-16T12:26:55;16.60;;;11.45;;
43560;SDS011;32305;46.410;17.394;2022-12-16T12:29:58;21.63;;;11.60;;
43560;SDS011;32305;46.410;17.394;2022-12-16T12:36:12;21.27;;;13.07;;
43560;SDS011;32305;46.410;17.394;2022-12-16T12:39:21;18.45;;;12.38;;
43560;SDS011;32305;46.410;17.394;2022-12-16T12:42:46;23.95;;;12.10;;
43560;SDS011;32305;46.410;17.394;2022-12-16T12:45:49;21.77;;;12.95;;
43560;SDS011;32305;46.410;17.394;2022-12-16T12:48:55;22.58;;;14.30;;
43560;SDS011;32305;46.410;17.394;2022-12-16T12:52:35;21.88;;;12.13;;
43560;SDS011;32305;46.410;17.394;2022-12-16T12:55:35;20.15;;;12.73;;
43560;SDS011;32305;46.410;17.394;2022-12-16T12:58:35;23.35;;;13.02;;
43560;SDS011;32305;46.410;17.394;2022-12-16T13:01:25;27.45;;;13.02;;
43560;SDS011;32305;46.410;17.394;2022-12-16T13:04:17;26.23;;;14.30;;
43560;SDS011;32305;46.410;17.394;2022-12-16T13:07:07;19.00;;;12.05;;
43560;SDS011;32305;46.410;17.394;2022-12-16T13:10:12;19.27;;;13.02;;
43560;SDS011;32305;46.410;17.394;2022-12-16T13:13:25;21.30;;;12.57;;
43560;SDS011;32305;46.410;17.394;2022-12-16T13:19:54;18.92;;;11.50;;
43560;SDS011;32305;46.410;17.394;2022-12-16T13:22:42;23.65;;;10.68;;
43560;SDS011;32305;46.410;17.394;2022-12-16T13:25:48;15.23;;;10.57;;
43560;SDS011;32305;46.410;17.394;2022-12-16T13:29:01;19.17;;;10.20;;
43560;SDS011;32305;46.410;17.394;2022-12-16T13:32:18;21.65;;;11.10;;
43560;SDS011;32305;46.410;17.394;2022-12-16T13:35:15;16.45;;;9.82;;
43560;SDS011;32305;46.410;17.394;2022-12-16T13:38:19;16.80;;;9.85;;
43560;SDS011;32305;46.410;17.394;2022-12-16T13:50:50;15.25;;;9.90;;
43560;SDS011;32305;46.410;17.394;2022-12-16T13:53:46;19.38;;;9.60;;
43560;SDS011;32305;46.410;17.394;2022-12-16T13:56:38;16.38;;;8.68;;
43560;SDS011;32305;46.410;17.394;2022-12-16T13:59:30;16.35;;;9.48;;
43560;SDS011;32305;46.410;17.394;2022-12-16T14:02:25;17.08;;;9.35;;
43560;SDS011;32305;46.410;17.394;2022-12-16T14:05:24;16.55;;;8.70;;
43560;SDS011;32305;46.410;17.394;2022-12-16T14:08:21;14.98;;;9.60;;
43560;SDS011;32305;46.410;17.394;2022-12-16T14:11:24;12.88;;;8.15;;
43560;SDS011;32305;46.410;17.394;2022-12-16T14:14:35;13.82;;;9.43;;
43560;SDS011;32305;46.410;17.394;2022-12-16T14:17:34;16.98;;;8.68;;
43560;SDS011;32305;46.410;17.394;2022-12-16T14:20:28;12.70;;;8.52;;
43560;SDS011;32305;46.410;17.394;2022-12-16T14:23:28;15.20;;;8.02;;
43560;SDS011;32305;46.410;17.394;2022-12-16T14:26:29;14.18;;;8.45;;
43560;SDS011;32305;46.410;17.394;2022-12-16T14:29:19;17.48;;;8.20;;
43560;SDS011;32305;46.410;17.394;2022-12-16T14:32:24;17.40;;;9.18;;
43560;SDS011;32305;46.410;17.394;2022-12-16T14:35:22;11.20;;;7.60;;
43560;SDS011;32305;46.410;17.394;2022-12-16T14:38:23;10.68;;;7.80;;
43560;SDS011;32305;46.410;17.394;2022-12-16T14:41:14;14.25;;;7.47;;
43560;SDS011;32305;46.410;17.394;2022-12-16T14:44:05;18.30;;;8.38;;
43560;SDS011;32305;46.410;17.394;2022-12-16T14:47:17;10.65;;;7.60;;
43560;SDS011;32305;46.410;17.394;2022-12-16T14:50:20;12.98;;;7.35;;
43560;SDS011;32305;46.410;17.394;2022-12-16T14:53:19;9.10;;;7.13;;
43560;SDS011;32305;46.410;17.394;2022-12-16T14:56:18;12.90;;;7.70;;
43560;SDS011;32305;46.410;17.394;2022-12-16T14:59:14;12.00;;;7.75;;
43560;SDS011;32305;46.410;17.394;2022-12-16T15:05:17;11.40;;;7.50;;
43560;SDS011;32305;46.410;17.394;2022-12-16T15:08:07;10.77;;;6.63;;
43560;SDS011;32305;46.410;17.394;2022-12-16T15:10:57;10.55;;;7.15;;
43560;SDS011;32305;46.410;17.394;2022-12-16T15:13:46;11.18;;;7.13;;
43560;SDS011;32305;46.410;17.394;2022-12-16T15:16:39;11.07;;;6.90;;
43560;SDS011;32305;46.410;17.394;2022-12-16T15:19:28;9.93;;;7.05;;
43560;SDS011;32305;46.410;17.394;2022-12-16T15:22:28;9.18;;;7.05;;
43560;SDS011;32305;46.410;17.394;2022-12-16T15:25:17;8.45;;;6.70;;
43560;SDS011;32305;46.410;17.394;2022-12-16T15:28:26;10.90;;;7.40;;
43560;SDS011;32305;46.410;17.394;2022-12-16T15:31:29;9.27;;;6.88;;
43560;SDS011;32305;46.410;17.394;2022-12-16T15:34:23;8.48;;;7.00;;
43560;SDS011;32305;46.410;17.394;2022-12-16T15:37:35;8.75;;;6.90;;
43560;SDS011;32305;46.410;17.394;2022-12-16T15:40:30;10.23;;;6.95;;
43560;SDS011;32305;46.410;17.394;2022-12-16T15:43:19;10.02;;;6.68;;
43560;SDS011;32305;46.410;17.394;2022-12-16T15:46:25;8.18;;;6.55;;
43560;SDS011;32305;46.410;17.394;2022-12-16T15:49:22;7.78;;;6.20;;
43560;SDS011;32305;46.410;17.394;2022-12-16T15:52:32;7.25;;;5.53;;
43560;SDS011;32305;46.410;17.394;2022-12-16T15:55:31;9.13;;;6.25;;
43560;SDS011;32305;46.410;17.394;2022-12-16T15:58:31;7.40;;;6.20;;
43560;SDS011;32305;46.410;17.394;2022-12-16T16:01:20;8.35;;;7.25;;
43560;SDS011;32305;46.410;17.394;2022-12-16T16:07:12;9.57;;;6.75;;
43560;SDS011;32305;46.410;17.394;2022-12-16T16:10:15;9.75;;;6.65;;
43560;SDS011;32305;46.410;17.394;2022-12-16T16:13:04;11.95;;;7.07;;
43560;SDS011;32305;46.410;17.394;2022-12-16T16:15:52;10.60;;;6.70;;
43560;SDS011;32305;46.410;17.394;2022-12-16T16:18:40;9.50;;;6.53;;
43560;SDS011;32305;46.410;17.394;2022-12-16T16:21:28;10.10;;;6.78;;
43560;SDS011;32305;46.410;17.394;2022-12-16T16:24:15;10.30;;;7.18;;
43560;SDS011;32305;46.410;17.394;2022-12-16T16:27:02;9.90;;;6.63;;
43560;SDS011;32305;46.410;17.394;2022-12-16T16:29:54;9.82;;;7.03;;
43560;SDS011;32305;46.410;17.394;2022-12-16T16:32:42;10.07;;;6.05;;
43560;SDS011;32305;46.410;17.394;2022-12-16T16:35:30;8.68;;;6.03;;
43560;SDS011;32305;46.410;17.394;2022-12-16T16:38:18;8.15;;;6.38;;
43560;SDS011;32305;46.410;17.394;2022-12-16T16:41:07;10.05;;;6.68;;
43560;SDS011;32305;46.410;17.394;2022-12-16T16:44:00;8.80;;;5.65;;
43560;SDS011;32305;46.410;17.394;2022-12-16T16:46:48;6.75;;;5.07;;
43560;SDS011;32305;46.410;17.394;2022-12-16T16:49:41;9.40;;;5.93;;
43560;SDS011;32305;46.410;17.394;2022-12-16T16:52:30;6.57;;;5.63;;